createdAt,value
2022-10-04T00:00:21.130Z,1018.20
2022-10-04T00:02:14.147Z,1018.13
2022-10-04T00:03:14.134Z,1018.13
2022-10-04T00:05:18.080Z,1018.11
2022-10-04T00:06:18.097Z,1018.12
2022-10-04T00:08:22.586Z,1018.14
2022-10-04T00:09:22.126Z,1018.12
2022-10-04T00:11:26.126Z,1018.11
2022-10-04T00:12:26.144Z,1018.09
2022-10-04T00:14:30.634Z,1018.05
2022-10-04T00:15:30.177Z,1018.09
2022-10-04T00:17:34.185Z,1018.13
2022-10-04T00:18:34.197Z,1018.16
2022-10-04T00:20:38.688Z,1018.15
2022-10-04T00:21:38.232Z,1018.16
2022-10-04T00:23:42.233Z,1018.12
2022-10-04T00:24:42.246Z,1018.14
2022-10-04T00:26:46.769Z,1018.09
2022-10-04T00:27:46.283Z,1018.04
2022-10-04T00:29:50.293Z,1018.02
2022-10-04T00:30:50.302Z,1018.01
2022-10-04T00:32:54.796Z,1018.08
2022-10-04T00:33:54.327Z,1018.06
2022-10-04T00:35:58.325Z,1018.10
2022-10-04T00:36:58.345Z,1018.09
2022-10-04T00:39:02.836Z,1018.09
2022-10-04T00:40:02.382Z,1018.10
2022-10-04T00:41:55.306Z,1018.09
2022-10-04T00:42:55.319Z,1018.07
2022-10-04T00:44:59.803Z,1018.03
2022-10-04T00:45:59.373Z,1017.98
2022-10-04T00:48:03.355Z,1017.94
2022-10-04T00:49:03.369Z,1017.97
2022-10-04T00:51:07.855Z,1017.89
2022-10-04T00:52:07.398Z,1017.90
2022-10-04T00:54:11.408Z,1017.92
2022-10-04T00:55:11.417Z,1017.86
2022-10-04T00:57:15.908Z,1017.87
2022-10-04T00:58:15.441Z,1017.88
2022-10-04T01:00:08.620Z,1017.84
2022-10-04T01:01:08.655Z,1017.85
2022-10-04T01:03:13.119Z,1017.82
2022-10-04T01:04:12.645Z,1017.83
2022-10-04T01:06:16.675Z,1017.78
2022-10-04T01:07:16.689Z,1017.80
2022-10-04T01:09:21.188Z,1017.73
2022-10-04T01:10:20.725Z,1017.72
2022-10-04T01:12:13.658Z,1017.68
2022-10-04T01:13:13.670Z,1017.67
2022-10-04T01:15:18.156Z,1017.65
2022-10-04T01:16:17.748Z,1017.70
2022-10-04T01:18:21.707Z,1017.64
2022-10-04T01:19:21.718Z,1017.59
2022-10-04T01:21:26.218Z,1017.54
2022-10-04T01:22:25.739Z,1017.56
2022-10-04T01:24:29.741Z,1017.53
2022-10-04T01:25:29.759Z,1017.55
2022-10-04T01:27:34.246Z,1017.54
2022-10-04T01:28:33.833Z,1017.56
2022-10-04T01:30:37.784Z,1017.50
2022-10-04T01:31:37.902Z,1017.49
2022-10-04T01:33:42.284Z,1017.41
2022-10-04T01:34:41.817Z,1017.39
2022-10-04T01:36:45.832Z,1017.36
2022-10-04T01:37:45.849Z,1017.36
2022-10-04T01:39:51.832Z,1017.38
2022-10-04T01:40:49.870Z,1017.37
2022-10-04T01:42:53.878Z,1017.33
2022-10-04T01:43:53.897Z,1017.28
2022-10-04T01:45:58.439Z,1017.20
2022-10-04T01:46:57.941Z,1017.19
2022-10-04T01:48:51.054Z,1017.20
2022-10-04T01:49:51.065Z,1017.27
2022-10-04T01:51:44.547Z,1017.27
2022-10-04T01:52:44.009Z,1017.29
2022-10-04T01:54:48.020Z,1017.35
2022-10-04T01:55:48.043Z,1017.31
2022-10-04T01:57:52.534Z,1017.29
2022-10-04T01:58:52.056Z,1017.27
2022-10-04T02:00:56.130Z,1017.29
2022-10-04T02:01:56.085Z,1017.36
2022-10-04T02:04:01.066Z,1017.32
2022-10-04T02:05:00.227Z,1017.34
2022-10-04T02:07:04.108Z,1017.35
2022-10-04T02:08:04.115Z,1017.38
2022-10-04T02:09:57.593Z,1017.38
2022-10-04T02:10:57.274Z,1017.33
2022-10-04T02:13:01.275Z,1017.29
2022-10-04T02:14:01.285Z,1017.24
2022-10-04T02:16:05.798Z,1017.24
2022-10-04T02:17:05.305Z,1017.19
2022-10-04T02:19:09.335Z,1017.22
2022-10-04T02:20:09.322Z,1017.18
2022-10-04T02:22:02.797Z,1017.14
2022-10-04T02:23:02.272Z,1017.15
2022-10-04T02:25:06.291Z,1017.07
2022-10-04T02:26:06.289Z,1017.09
2022-10-04T02:28:11.086Z,1017.05
2022-10-04T02:29:10.318Z,1017.05
2022-10-04T02:31:14.378Z,1016.97
2022-10-04T02:32:14.331Z,1016.95
2022-10-04T02:34:07.809Z,1016.93
2022-10-04T02:35:07.492Z,1016.88
2022-10-04T02:37:00.612Z,1016.97
2022-10-04T02:38:00.623Z,1017.01
2022-10-04T02:40:05.105Z,1017.03
2022-10-04T02:41:04.640Z,1017.02
2022-10-04T02:43:08.651Z,1016.96
2022-10-04T02:44:08.663Z,1016.93
2022-10-04T02:46:13.220Z,1016.91
2022-10-04T02:47:12.682Z,1016.87
2022-10-04T02:49:16.691Z,1016.92
2022-10-04T02:50:16.706Z,1016.91
2022-10-04T02:52:10.178Z,1016.94
2022-10-04T02:53:09.647Z,1016.96
2022-10-04T02:55:13.660Z,1016.87
2022-10-04T02:56:13.673Z,1016.85
2022-10-04T02:58:18.168Z,1016.88
2022-10-04T02:59:17.693Z,1016.85
2022-10-04T03:01:21.761Z,1016.87
2022-10-04T03:02:29.134Z,1016.89
2022-10-04T03:04:26.202Z,1016.85
2022-10-04T03:05:25.733Z,1016.86
2022-10-04T03:07:29.774Z,1016.82
2022-10-04T03:08:29.760Z,1016.80
2022-10-04T03:10:34.236Z,1016.79
2022-10-04T03:11:33.765Z,1016.78
2022-10-04T03:13:37.770Z,1016.84
2022-10-04T03:14:37.837Z,1016.85
2022-10-04T03:16:42.326Z,1016.82
2022-10-04T03:17:41.801Z,1016.85
2022-10-04T03:19:45.818Z,1016.81
2022-10-04T03:20:45.832Z,1016.83
2022-10-04T03:22:50.319Z,1016.83
2022-10-04T03:23:49.856Z,1016.78
2022-10-04T03:25:53.858Z,1016.78
2022-10-04T03:26:53.873Z,1016.74
2022-10-04T03:28:58.377Z,1016.69
2022-10-04T03:29:59.283Z,1016.70
2022-10-04T03:31:50.900Z,1016.75
2022-10-04T03:32:50.846Z,1016.77
2022-10-04T03:34:55.332Z,1016.76
2022-10-04T03:35:54.858Z,1016.71
2022-10-04T03:37:58.880Z,1016.73
2022-10-04T03:38:58.894Z,1016.70
2022-10-04T03:41:03.380Z,1016.65
2022-10-04T03:42:02.919Z,1016.68
2022-10-04T03:44:06.931Z,1016.65
2022-10-04T03:45:06.951Z,1016.66
2022-10-04T03:47:11.434Z,1016.70
2022-10-04T03:48:10.958Z,1016.73
2022-10-04T03:50:14.992Z,1016.68
2022-10-04T03:51:15.001Z,1016.67
2022-10-04T03:53:20.972Z,1016.66
2022-10-04T03:54:19.005Z,1016.62
2022-10-04T03:56:23.014Z,1016.57
2022-10-04T03:57:23.024Z,1016.56
2022-10-04T03:59:27.532Z,1016.51
2022-10-04T04:00:27.063Z,1016.45
2022-10-04T04:02:20.086Z,1016.36
2022-10-04T04:03:19.994Z,1016.28
2022-10-04T04:05:24.479Z,1016.24
2022-10-04T04:06:24.018Z,1016.24
2022-10-04T04:08:28.047Z,1016.27
2022-10-04T04:09:28.054Z,1016.30
2022-10-04T04:11:32.577Z,1016.36
2022-10-04T04:12:32.076Z,1016.40
2022-10-04T04:14:36.082Z,1016.41
2022-10-04T04:15:36.143Z,1016.40
2022-10-04T04:17:40.586Z,1016.43
2022-10-04T04:18:40.117Z,1016.40
2022-10-04T04:20:44.135Z,1016.37
2022-10-04T04:21:44.156Z,1016.37
2022-10-04T04:23:48.648Z,1016.33
2022-10-04T04:24:48.178Z,1016.32
2022-10-04T04:26:52.170Z,1016.38
2022-10-04T04:27:52.290Z,1016.36
2022-10-04T04:29:56.673Z,1016.34
2022-10-04T04:30:56.211Z,1016.31
2022-10-04T04:33:00.670Z,1016.28
2022-10-04T04:34:00.229Z,1016.25
2022-10-04T04:36:04.718Z,1016.24
2022-10-04T04:37:04.253Z,1016.23
2022-10-04T04:39:08.272Z,1016.28
2022-10-04T04:40:08.273Z,1016.29
2022-10-04T04:42:01.746Z,1016.28
2022-10-04T04:43:01.223Z,1016.27
2022-10-04T04:45:05.232Z,1016.27
2022-10-04T04:46:25.976Z,1016.23
2022-10-04T04:48:09.740Z,1016.23
2022-10-04T04:49:09.286Z,1016.22
2022-10-04T04:51:13.302Z,1016.24
2022-10-04T04:52:13.322Z,1016.24
2022-10-04T04:54:17.799Z,1016.24
2022-10-04T04:55:17.327Z,1016.27
2022-10-04T04:57:21.343Z,1016.25
2022-10-04T04:58:21.356Z,1016.23
2022-10-04T05:00:26.347Z,1016.25
2022-10-04T05:01:25.397Z,1016.23
2022-10-04T05:03:29.383Z,1016.27
2022-10-04T05:04:29.399Z,1016.29
2022-10-04T05:06:33.887Z,1016.23
2022-10-04T05:07:33.415Z,1016.24
2022-10-04T05:09:37.426Z,1016.26
2022-10-04T05:10:37.434Z,1016.24
2022-10-04T05:12:30.907Z,1016.27
2022-10-04T05:13:30.386Z,1016.24
2022-10-04T05:15:34.396Z,1016.26
2022-10-04T05:16:34.457Z,1016.27
2022-10-04T05:18:38.905Z,1016.30
2022-10-04T05:19:38.434Z,1016.30
2022-10-04T05:21:43.011Z,1016.33
2022-10-04T05:22:42.459Z,1016.35
2022-10-04T05:24:46.954Z,1016.32
2022-10-04T05:25:46.478Z,1016.36
2022-10-04T05:27:50.548Z,1016.38
2022-10-04T05:28:50.502Z,1016.38
2022-10-04T05:30:54.990Z,1016.32
2022-10-04T05:31:54.590Z,1016.29
2022-10-04T05:33:58.529Z,1016.29
2022-10-04T05:34:58.542Z,1016.29
2022-10-04T05:37:03.049Z,1016.28
2022-10-04T05:38:02.570Z,1016.28
2022-10-04T05:40:06.579Z,1016.27
2022-10-04T05:41:06.591Z,1016.26
2022-10-04T05:43:11.081Z,1016.21
2022-10-04T05:44:10.610Z,1016.18
2022-10-04T05:46:14.706Z,1016.15
2022-10-04T05:47:14.637Z,1016.10
2022-10-04T05:49:19.718Z,1016.10
2022-10-04T05:50:18.655Z,1016.13
2022-10-04T05:52:11.590Z,1016.16
2022-10-04T05:53:11.603Z,1016.14
2022-10-04T05:55:16.092Z,1016.19
2022-10-04T05:56:15.620Z,1016.19
2022-10-04T05:58:20.633Z,1016.16
2022-10-04T05:59:20.649Z,1016.18
2022-10-04T06:01:25.174Z,1016.12
2022-10-04T06:02:24.715Z,1016.18
2022-10-04T06:04:28.684Z,1016.22
2022-10-04T06:05:29.323Z,1016.20
2022-10-04T06:07:33.177Z,1016.23
2022-10-04T06:08:32.705Z,1016.25
2022-10-04T06:10:36.714Z,1016.25
2022-10-04T06:11:36.730Z,1016.27
2022-10-04T06:13:41.218Z,1016.23
2022-10-04T06:14:40.750Z,1016.24
2022-10-04T06:16:44.829Z,1016.25
2022-10-04T06:17:44.777Z,1016.27
2022-10-04T06:19:49.256Z,1016.23
2022-10-04T06:20:48.795Z,1016.29
2022-10-04T06:22:52.806Z,1016.31
2022-10-04T06:23:52.818Z,1016.31
2022-10-04T06:25:57.306Z,1016.33
2022-10-04T06:26:56.839Z,1016.33
2022-10-04T06:29:00.852Z,1016.31
2022-10-04T06:30:00.872Z,1016.35
2022-10-04T06:31:57.040Z,1016.37
2022-10-04T06:32:53.815Z,1016.32
2022-10-04T06:34:57.819Z,1016.31
2022-10-04T06:35:57.837Z,1016.30
2022-10-04T06:38:02.334Z,1016.24
2022-10-04T06:39:04.223Z,1016.22
2022-10-04T06:41:05.868Z,1016.23
2022-10-04T06:42:05.883Z,1016.26
2022-10-04T06:44:10.379Z,1016.25
2022-10-04T06:45:09.920Z,1016.27
2022-10-04T06:47:13.923Z,1016.24
2022-10-04T06:48:13.937Z,1016.21
2022-10-04T06:50:18.425Z,1016.20
2022-10-04T06:51:17.960Z,1016.20
2022-10-04T06:53:21.964Z,1016.12
2022-10-04T06:54:21.978Z,1016.13
2022-10-04T06:56:26.465Z,1016.09
2022-10-04T06:57:26.001Z,1016.07
2022-10-04T06:59:30.012Z,1016.08
2022-10-04T07:00:30.021Z,1016.11
2022-10-04T07:02:23.543Z,1016.12
2022-10-04T07:03:22.985Z,1016.08
2022-10-04T07:05:26.994Z,1016.15
2022-10-04T07:06:27.012Z,1016.13
2022-10-04T07:08:31.495Z,1016.15
2022-10-04T07:09:31.039Z,1016.11
2022-10-04T07:11:35.089Z,1016.12
2022-10-04T07:12:35.061Z,1016.11
2022-10-04T07:14:40.048Z,1016.10
2022-10-04T07:15:39.657Z,1016.08
2022-10-04T07:16:39.608Z,1016.10
2022-10-04T07:17:39.631Z,1016.08
2022-10-04T07:18:39.655Z,1016.13
2022-10-04T07:19:39.675Z,1016.12
2022-10-04T07:20:39.700Z,1016.09
2022-10-04T07:21:39.744Z,1016.12
2022-10-04T07:22:39.742Z,1016.12
2022-10-04T07:23:39.771Z,1016.11
2022-10-04T07:24:39.792Z,1016.11
2022-10-04T07:25:39.819Z,1016.12
2022-10-04T07:26:39.852Z,1016.15
2022-10-04T07:27:39.860Z,1016.11
2022-10-04T07:28:39.945Z,1016.17
2022-10-04T07:29:42.089Z,1016.18
2022-10-04T07:30:40.001Z,1016.20
2022-10-04T07:31:39.948Z,1016.19
2022-10-04T07:32:39.973Z,1016.22
2022-10-04T07:33:39.999Z,1016.24
2022-10-04T07:34:40.027Z,1016.22
2022-10-04T07:35:40.040Z,1016.28
2022-10-04T07:36:40.065Z,1016.28
2022-10-04T07:37:40.090Z,1016.26
2022-10-04T07:38:40.114Z,1016.27
2022-10-04T07:39:40.132Z,1016.28
2022-10-04T07:40:40.161Z,1016.29
2022-10-04T07:41:40.351Z,1016.30
2022-10-04T07:42:40.206Z,1016.34
2022-10-04T07:43:40.230Z,1016.33
2022-10-04T07:44:40.253Z,1016.37
2022-10-04T07:45:40.281Z,1016.39
2022-10-04T07:46:40.299Z,1016.40
2022-10-04T07:47:40.320Z,1016.46
2022-10-04T07:48:40.342Z,1016.47
2022-10-04T07:49:40.370Z,1016.42
2022-10-04T07:50:40.393Z,1016.49
2022-10-04T07:51:40.685Z,1016.40
2022-10-04T07:52:40.441Z,1016.41
2022-10-04T07:53:40.460Z,1016.43
2022-10-04T07:54:40.486Z,1016.44
2022-10-04T07:55:40.522Z,1016.44
2022-10-04T07:56:40.533Z,1016.45
2022-10-04T07:57:40.599Z,1016.48
2022-10-04T07:58:45.395Z,1016.48
2022-10-04T07:59:40.618Z,1016.46
2022-10-04T08:00:40.626Z,1016.48
2022-10-04T08:01:40.810Z,1016.47
2022-10-04T08:02:40.816Z,1016.45
2022-10-04T08:03:40.694Z,1016.41
2022-10-04T08:04:40.722Z,1016.42
2022-10-04T08:05:40.744Z,1016.44
2022-10-04T08:06:41.250Z,1016.44
2022-10-04T08:07:40.788Z,1016.47
2022-10-04T08:08:40.812Z,1016.47
2022-10-04T08:09:40.838Z,1016.50
2022-10-04T08:10:40.868Z,1016.49
2022-10-04T08:11:41.149Z,1016.46
2022-10-04T08:12:40.909Z,1016.39
2022-10-04T08:13:40.930Z,1016.39
2022-10-04T08:14:40.958Z,1016.39
2022-10-04T08:15:41.038Z,1016.42
2022-10-04T08:16:41.376Z,1016.41
2022-10-04T08:17:41.025Z,1016.41
2022-10-04T08:18:41.052Z,1016.41
2022-10-04T08:19:41.071Z,1016.43
2022-10-04T08:20:41.098Z,1016.42
2022-10-04T08:21:41.121Z,1016.45
2022-10-04T08:22:41.149Z,1016.45
2022-10-04T08:23:41.174Z,1016.44
2022-10-04T08:24:41.194Z,1016.45
2022-10-04T08:25:41.214Z,1016.42
2022-10-04T08:26:41.357Z,1016.39
2022-10-04T08:27:41.280Z,1016.41
2022-10-04T08:28:41.284Z,1016.36
2022-10-04T08:29:41.330Z,1016.41
2022-10-04T08:30:41.370Z,1016.44
2022-10-04T08:31:41.354Z,1016.45
2022-10-04T08:32:41.381Z,1016.42
2022-10-04T08:33:41.399Z,1016.43
2022-10-04T08:34:41.428Z,1016.45
2022-10-04T08:35:41.453Z,1016.43
2022-10-04T08:36:41.816Z,1016.41
2022-10-04T08:37:41.499Z,1016.43
2022-10-04T08:38:41.527Z,1016.43
2022-10-04T08:39:41.550Z,1016.42
2022-10-04T08:40:41.571Z,1016.38
2022-10-04T08:41:41.595Z,1016.38
2022-10-04T08:42:41.621Z,1016.36
2022-10-04T08:43:41.640Z,1016.34
2022-10-04T08:44:41.666Z,1016.33
2022-10-04T08:45:41.696Z,1016.34
2022-10-04T08:46:42.146Z,1016.34
2022-10-04T08:47:41.739Z,1016.33
2022-10-04T08:48:41.764Z,1016.32
2022-10-04T08:49:41.785Z,1016.31
2022-10-04T08:50:41.809Z,1016.29
2022-10-04T08:51:41.829Z,1016.30
2022-10-04T08:52:41.858Z,1016.30
2022-10-04T08:53:41.879Z,1016.31
2022-10-04T08:54:41.908Z,1016.28
2022-10-04T08:55:41.928Z,1016.27
2022-10-04T08:56:42.220Z,1016.31
2022-10-04T08:57:41.974Z,1016.31
2022-10-04T08:58:42.002Z,1016.31
2022-10-04T08:59:42.023Z,1016.31
2022-10-04T09:00:42.050Z,1016.31
2022-10-04T09:01:42.117Z,1016.32
2022-10-04T09:02:42.186Z,1016.31
2022-10-04T09:03:42.124Z,1016.28
2022-10-04T09:04:42.145Z,1016.32
2022-10-04T09:05:42.173Z,1016.32
2022-10-04T09:06:42.431Z,1016.26
2022-10-04T09:07:42.219Z,1016.26
2022-10-04T09:08:42.243Z,1016.25
2022-10-04T09:09:42.267Z,1016.32
2022-10-04T09:10:42.292Z,1016.27
2022-10-04T09:11:42.316Z,1016.23
2022-10-04T09:12:42.341Z,1016.25
2022-10-04T09:13:42.362Z,1016.25
2022-10-04T09:14:42.393Z,1016.25
2022-10-04T09:15:42.476Z,1016.21
2022-10-04T09:16:42.742Z,1016.21
2022-10-04T09:17:42.463Z,1016.22
2022-10-04T09:18:42.492Z,1016.21
2022-10-04T09:19:42.510Z,1016.15
2022-10-04T09:20:42.538Z,1016.16
2022-10-04T09:21:42.561Z,1016.11
2022-10-04T09:22:42.591Z,1016.07
2022-10-04T09:23:42.610Z,1016.07
2022-10-04T09:24:42.647Z,1016.02
2022-10-04T09:25:42.662Z,1015.97
2022-10-04T09:26:42.950Z,1015.93
2022-10-04T09:27:56.342Z,1015.94
2022-10-04T09:28:42.778Z,1015.92
2022-10-04T09:29:42.760Z,1015.87
2022-10-04T09:30:42.820Z,1015.83
2022-10-04T09:31:42.811Z,1015.82
2022-10-04T09:32:42.828Z,1015.81
2022-10-04T09:33:42.859Z,1015.82
2022-10-04T09:34:42.885Z,1015.82
2022-10-04T09:35:42.906Z,1015.80
2022-10-04T09:36:43.209Z,1015.81
2022-10-04T09:37:42.955Z,1015.75
2022-10-04T09:38:42.982Z,1015.81
2022-10-04T09:39:43.008Z,1015.78
2022-10-04T09:40:47.074Z,1015.77
2022-10-04T09:41:43.053Z,1015.73
2022-10-04T09:42:43.083Z,1015.73
2022-10-04T09:43:43.107Z,1015.71
2022-10-04T09:44:43.133Z,1015.68
2022-10-04T09:45:43.157Z,1015.68
2022-10-04T09:46:43.538Z,1015.65
2022-10-04T09:47:43.206Z,1015.65
2022-10-04T09:48:43.231Z,1015.66
2022-10-04T09:49:43.254Z,1015.70
2022-10-04T09:50:43.283Z,1015.71
2022-10-04T09:51:43.307Z,1015.69
2022-10-04T09:52:43.334Z,1015.68
2022-10-04T09:53:43.358Z,1015.71
2022-10-04T09:54:44.493Z,1015.70
2022-10-04T09:55:43.408Z,1015.66
2022-10-04T09:56:43.625Z,1015.64
2022-10-04T09:57:43.460Z,1015.66
2022-10-04T09:58:43.495Z,1015.66
2022-10-04T09:59:43.511Z,1015.67
2022-10-04T10:00:43.533Z,1015.63
2022-10-04T10:01:43.623Z,1015.63
2022-10-04T10:02:43.666Z,1015.60
2022-10-04T10:03:43.609Z,1015.63
2022-10-04T10:04:43.634Z,1015.59
2022-10-04T10:05:43.659Z,1015.58
2022-10-04T10:06:44.048Z,1015.57
2022-10-04T10:07:43.712Z,1015.55
2022-10-04T10:08:43.739Z,1015.55
2022-10-04T10:09:43.764Z,1015.55
2022-10-04T10:10:43.790Z,1015.52
2022-10-04T10:11:44.040Z,1015.49
2022-10-04T10:12:43.837Z,1015.45
2022-10-04T10:13:43.868Z,1015.47
2022-10-04T10:14:43.894Z,1015.45
2022-10-04T10:15:43.980Z,1015.46
2022-10-04T10:16:44.128Z,1015.49
2022-10-04T10:17:43.967Z,1015.51
2022-10-04T10:18:43.993Z,1015.53
2022-10-04T10:19:44.018Z,1015.54
2022-10-04T10:20:44.042Z,1015.57
2022-10-04T10:21:44.304Z,1015.53
2022-10-04T10:22:44.096Z,1015.56
2022-10-04T10:23:44.123Z,1015.60
2022-10-04T10:24:44.181Z,1015.45
2022-10-04T10:25:44.174Z,1015.51
2022-10-04T10:26:44.537Z,1015.47
2022-10-04T10:27:44.226Z,1015.49
2022-10-04T10:28:44.249Z,1015.51
2022-10-04T10:29:44.278Z,1015.54
2022-10-04T10:30:44.300Z,1015.53
2022-10-04T10:31:47.679Z,1015.48
2022-10-04T10:32:44.352Z,1015.47
2022-10-04T10:33:44.375Z,1015.48
2022-10-04T10:34:44.408Z,1015.49
2022-10-04T10:35:44.427Z,1015.53
2022-10-04T10:36:44.688Z,1015.50
2022-10-04T10:37:44.479Z,1015.55
2022-10-04T10:38:44.507Z,1015.54
2022-10-04T10:39:44.534Z,1015.49
2022-10-04T10:40:44.557Z,1015.53
2022-10-04T10:41:44.584Z,1015.47
2022-10-04T10:42:44.612Z,1015.52
2022-10-04T10:43:44.639Z,1015.50
2022-10-04T10:44:44.698Z,1015.51
2022-10-04T10:45:44.691Z,1015.52
2022-10-04T10:46:45.035Z,1015.47
2022-10-04T10:47:44.742Z,1015.49
2022-10-04T10:48:44.769Z,1015.47
2022-10-04T10:49:44.792Z,1015.46
2022-10-04T10:50:44.817Z,1015.40
2022-10-04T10:51:44.846Z,1015.41
2022-10-04T10:52:44.876Z,1015.39
2022-10-04T10:53:44.893Z,1015.36
2022-10-04T10:54:44.924Z,1015.38
2022-10-04T10:55:44.948Z,1015.42
2022-10-04T10:56:45.280Z,1015.38
2022-10-04T10:57:45.002Z,1015.40
2022-10-04T10:58:45.025Z,1015.42
2022-10-04T10:59:45.052Z,1015.37
2022-10-04T11:00:45.072Z,1015.37
2022-10-04T11:01:45.215Z,1015.40
2022-10-04T11:02:50.272Z,1015.36
2022-10-04T11:03:45.315Z,1015.35
2022-10-04T11:04:45.182Z,1015.32
2022-10-04T11:05:45.206Z,1015.30
2022-10-04T11:06:45.488Z,1015.31
2022-10-04T11:07:45.262Z,1015.31
2022-10-04T11:08:45.284Z,1015.31
2022-10-04T11:09:45.310Z,1015.28
2022-10-04T11:10:47.920Z,1015.26
2022-10-04T11:11:45.386Z,1015.28
2022-10-04T11:12:45.428Z,1015.24
2022-10-04T11:13:45.419Z,1015.24
2022-10-04T11:14:45.441Z,1015.27
2022-10-04T11:15:45.517Z,1015.27
2022-10-04T11:16:45.826Z,1015.26
2022-10-04T11:19:17.720Z,1015.28
2022-10-04T11:20:17.194Z,1015.31
2022-10-04T11:22:10.160Z,1015.30
2022-10-04T11:23:10.178Z,1015.30
2022-10-04T11:25:14.673Z,1015.29
2022-10-04T11:26:14.219Z,1015.25
2022-10-04T11:28:18.326Z,1015.20
2022-10-04T11:29:18.268Z,1015.18
2022-10-04T11:31:22.773Z,1015.16
2022-10-04T11:32:22.302Z,1015.16
2022-10-04T11:34:26.368Z,1015.15
2022-10-04T11:35:26.339Z,1015.13
2022-10-04T11:37:30.833Z,1015.13
2022-10-04T11:38:30.374Z,1015.13
2022-10-04T11:40:34.380Z,1015.07
2022-10-04T11:41:34.399Z,1015.09
2022-10-04T11:43:38.900Z,1015.05
2022-10-04T11:44:38.447Z,1015.05
2022-10-04T11:46:42.928Z,1015.00
2022-10-04T11:47:42.479Z,1015.01
2022-10-04T11:48:42.505Z,1014.96
2022-10-04T11:49:42.528Z,1014.99
2022-10-04T11:50:42.552Z,1015.00
2022-10-04T11:51:42.578Z,1014.97
2022-10-04T11:52:42.606Z,1014.97
2022-10-04T11:53:42.638Z,1015.02
2022-10-04T11:54:42.659Z,1014.95
2022-10-04T11:55:42.689Z,1014.96
2022-10-04T11:56:43.173Z,1014.91
2022-10-04T11:57:42.736Z,1014.89
2022-10-04T11:58:42.765Z,1014.89
2022-10-04T11:59:42.792Z,1014.89
2022-10-04T12:00:42.828Z,1014.89
2022-10-04T12:01:42.843Z,1014.89
2022-10-04T12:02:42.874Z,1014.82
2022-10-04T12:03:42.983Z,1014.86
2022-10-04T12:04:42.988Z,1014.83
2022-10-04T12:05:42.956Z,1014.84
2022-10-04T12:06:43.399Z,1014.87
2022-10-04T12:07:43.004Z,1014.88
2022-10-04T12:08:43.040Z,1014.84
2022-10-04T12:09:43.058Z,1014.84
2022-10-04T12:10:43.090Z,1014.78
2022-10-04T12:11:43.113Z,1014.76
2022-10-04T12:12:43.144Z,1014.76
2022-10-04T12:13:43.168Z,1014.70
2022-10-04T12:14:43.199Z,1014.70
2022-10-04T12:15:43.217Z,1014.70
2022-10-04T12:16:43.884Z,1014.72
2022-10-04T12:17:43.282Z,1014.71
2022-10-04T12:18:43.300Z,1014.69
2022-10-04T12:19:43.339Z,1014.69
2022-10-04T12:20:43.359Z,1014.64
2022-10-04T12:21:43.437Z,1014.64
2022-10-04T12:22:43.411Z,1014.62
2022-10-04T12:23:43.435Z,1014.59
2022-10-04T12:24:43.458Z,1014.66
2022-10-04T12:25:43.487Z,1014.60
2022-10-04T12:26:43.841Z,1014.63
2022-10-04T12:27:43.540Z,1014.60
2022-10-04T12:28:43.568Z,1014.56
2022-10-04T12:29:43.598Z,1014.52
2022-10-04T12:30:43.622Z,1014.54
2022-10-04T12:31:43.727Z,1014.54
2022-10-04T12:32:43.709Z,1014.52
2022-10-04T12:33:43.703Z,1014.53
2022-10-04T12:34:43.731Z,1014.54
2022-10-04T12:35:43.782Z,1014.53
2022-10-04T12:36:44.089Z,1014.50
2022-10-04T12:37:43.817Z,1014.49
2022-10-04T12:38:43.841Z,1014.48
2022-10-04T12:39:43.875Z,1014.44
2022-10-04T12:40:43.892Z,1014.45
2022-10-04T12:41:43.936Z,1014.42
2022-10-04T12:42:43.947Z,1014.41
2022-10-04T12:43:43.975Z,1014.40
2022-10-04T12:44:43.999Z,1014.38
2022-10-04T12:45:44.080Z,1014.39
2022-10-04T12:46:44.346Z,1014.39
2022-10-04T12:47:44.082Z,1014.39
2022-10-04T12:48:44.108Z,1014.39
2022-10-04T12:49:44.135Z,1014.37
2022-10-04T12:50:44.165Z,1014.37
2022-10-04T12:51:44.189Z,1014.36
2022-10-04T12:52:44.221Z,1014.33
2022-10-04T12:53:44.288Z,1014.31
2022-10-04T12:54:44.282Z,1014.27
2022-10-04T12:55:44.300Z,1014.20
2022-10-04T12:56:44.633Z,1014.25
2022-10-04T12:57:44.356Z,1014.22
2022-10-04T12:58:44.387Z,1014.18
2022-10-04T12:59:44.410Z,1014.18
2022-10-04T13:00:44.490Z,1014.16
2022-10-04T13:01:44.500Z,1014.14
2022-10-04T13:02:44.494Z,1014.17
2022-10-04T13:03:44.517Z,1014.20
2022-10-04T13:04:44.544Z,1014.19
2022-10-04T13:05:44.571Z,1014.20
2022-10-04T13:06:45.059Z,1014.19
2022-10-04T13:07:44.623Z,1014.14
2022-10-04T13:08:44.651Z,1014.15
2022-10-04T13:09:59.834Z,1014.11
2022-10-04T13:10:44.709Z,1014.15
2022-10-04T13:11:44.736Z,1014.15
2022-10-04T13:12:44.768Z,1014.13
2022-10-04T13:13:44.808Z,1014.10
2022-10-04T13:14:44.838Z,1014.12
2022-10-04T13:17:44.899Z,1014.04
2022-10-04T13:18:44.932Z,1014.06
2022-10-04T13:19:44.954Z,1014.04
2022-10-04T13:20:44.984Z,1014.00
2022-10-04T13:21:45.300Z,1013.98
2022-10-04T13:22:56.519Z,1013.97
2022-10-04T13:23:45.062Z,1013.99
2022-10-04T13:24:45.085Z,1014.00
2022-10-04T13:25:45.125Z,1013.92
2022-10-04T13:26:45.147Z,1013.98
2022-10-04T13:27:45.181Z,1013.95
2022-10-04T13:28:45.194Z,1013.87
2022-10-04T13:29:45.228Z,1013.83
2022-10-04T13:30:45.256Z,1013.83
2022-10-04T13:31:45.664Z,1013.81
2022-10-04T13:32:45.306Z,1013.83
2022-10-04T13:33:45.334Z,1013.79
2022-10-04T13:34:45.362Z,1013.75
2022-10-04T13:35:45.386Z,1013.76
2022-10-04T13:36:45.416Z,1013.78
2022-10-04T13:37:45.440Z,1013.78
2022-10-04T13:38:45.467Z,1013.81
2022-10-04T13:39:45.498Z,1013.82
2022-10-04T13:40:45.522Z,1013.77
2022-10-04T13:41:45.829Z,1013.79
2022-10-04T13:42:45.580Z,1013.74
2022-10-04T13:43:45.607Z,1013.74
2022-10-04T13:44:45.635Z,1013.70
2022-10-04T13:45:45.704Z,1013.70
2022-10-04T13:46:45.697Z,1013.62
2022-10-04T13:47:45.714Z,1013.64
2022-10-04T13:48:45.745Z,1013.63
2022-10-04T13:49:45.773Z,1013.63
2022-10-04T13:50:45.798Z,1013.62
2022-10-04T13:51:46.149Z,1013.62
2022-10-04T13:52:45.851Z,1013.62
2022-10-04T13:53:47.192Z,1013.60
2022-10-04T13:54:45.909Z,1013.57
2022-10-04T13:55:45.936Z,1013.55
2022-10-04T13:56:45.964Z,1013.56
2022-10-04T13:57:46.068Z,1013.55
2022-10-04T13:58:46.022Z,1013.58
2022-10-04T13:59:46.064Z,1013.54
2022-10-04T14:00:46.136Z,1013.59
2022-10-04T14:01:46.433Z,1013.56
2022-10-04T14:02:46.132Z,1013.53
2022-10-04T14:03:46.209Z,1013.52
2022-10-04T14:04:46.193Z,1013.49
2022-10-04T14:05:46.210Z,1013.49
2022-10-04T14:06:46.244Z,1013.44
2022-10-04T14:07:46.265Z,1013.45
2022-10-04T14:08:46.315Z,1013.42
2022-10-04T14:09:46.319Z,1013.44
2022-10-04T14:10:46.347Z,1013.42
2022-10-04T14:11:46.801Z,1013.48
2022-10-04T14:12:46.400Z,1013.46
2022-10-04T14:13:46.429Z,1013.47
2022-10-04T14:14:46.456Z,1013.46
2022-10-04T14:15:46.486Z,1013.48
2022-10-04T14:16:46.553Z,1013.52
2022-10-04T14:17:46.542Z,1013.46
2022-10-04T14:18:46.573Z,1013.46
2022-10-04T14:19:46.593Z,1013.46
2022-10-04T14:20:46.618Z,1013.50
2022-10-04T14:21:47.142Z,1013.46
2022-10-04T14:22:46.676Z,1013.42
2022-10-04T14:23:46.728Z,1013.39
2022-10-04T14:24:46.745Z,1013.41
2022-10-04T14:25:46.756Z,1013.43
2022-10-04T14:26:47.382Z,1013.43
2022-10-04T14:27:46.813Z,1013.45
2022-10-04T14:28:46.839Z,1013.47
2022-10-04T14:29:46.873Z,1013.49
2022-10-04T14:30:46.902Z,1013.51
2022-10-04T14:31:47.319Z,1013.48
2022-10-04T14:32:46.948Z,1013.50
2022-10-04T14:33:46.978Z,1013.51
2022-10-04T14:34:47.006Z,1013.50
2022-10-04T14:35:47.032Z,1013.49
2022-10-04T14:36:47.061Z,1013.53
2022-10-04T14:37:47.089Z,1013.50
2022-10-04T14:38:47.112Z,1013.50
2022-10-04T14:39:47.159Z,1013.45
2022-10-04T14:40:47.166Z,1013.53
2022-10-04T14:41:47.197Z,1013.54
2022-10-04T14:42:47.229Z,1013.53
2022-10-04T14:43:47.252Z,1013.55
2022-10-04T14:44:47.281Z,1013.50
2022-10-04T14:45:47.368Z,1013.52
2022-10-04T14:46:47.336Z,1013.51
2022-10-04T14:47:47.411Z,1013.51